sensor_id;sensor_type;location;lat;lon;timestamp;pressure;altitude;pressure_sealevel;temperature;humidity
40850;BME280;26571;41.610;25.380;2022-08-03T00:01:16;98199.97;;;24.50;47.49
40850;BME280;26571;41.610;25.380;2022-08-03T00:03:42;98206.69;;;24.47;47.34
40850;BME280;26571;41.610;25.380;2022-08-03T00:06:07;98206.94;;;24.46;47.61
40850;BME280;26571;41.610;25.380;2022-08-03T00:08:33;98209.59;;;24.41;47.55
40850;BME280;26571;41.610;25.380;2022-08-03T00:10:58;98202.56;;;24.35;47.57
40850;BME280;26571;41.610;25.380;2022-08-03T00:13:24;98205.22;;;24.30;48.32
40850;BME280;26571;41.610;25.380;2022-08-03T00:15:50;98204.63;;;24.17;48.57
40850;BME280;26571;41.610;25.380;2022-08-03T00:18:15;98209.44;;;24.15;48.42
40850;BME280;26571;41.610;25.380;2022-08-03T00:20:41;98204.56;;;24.07;48.36
40850;BME280;26571;41.610;25.380;2022-08-03T00:23:06;98192.88;;;23.91;48.63
40850;BME280;26571;41.610;25.380;2022-08-03T00:25:33;98208.47;;;23.89;48.97
40850;BME280;26571;41.610;25.380;2022-08-03T00:28:00;98190.88;;;23.77;49.35
40850;BME280;26571;41.610;25.380;2022-08-03T00:30:25;98206.72;;;23.73;49.80
40850;BME280;26571;41.610;25.380;2022-08-03T00:32:51;98186.97;;;23.57;49.94
40850;BME280;26571;41.610;25.380;2022-08-03T00:35:16;98202.34;;;23.67;50.15
40850;BME280;26571;41.610;25.380;2022-08-03T00:37:41;98192.13;;;23.64;49.95
40850;BME280;26571;41.610;25.380;2022-08-03T00:40:10;98199.94;;;23.65;50.03
40850;BME280;26571;41.610;25.380;2022-08-03T00:42:55;98205.81;;;23.62;50.00
40850;BME280;26571;41.610;25.380;2022-08-03T00:45:25;98202.06;;;23.63;49.96
40850;BME280;26571;41.610;25.380;2022-08-03T00:47:52;98204.16;;;23.61;49.96
40850;BME280;26571;41.610;25.380;2022-08-03T00:50:19;98200.94;;;23.59;50.20
40850;BME280;26571;41.610;25.380;2022-08-03T00:52:47;98173.91;;;23.39;50.18
40850;BME280;26571;41.610;25.380;2022-08-03T00:55:13;98206.81;;;23.56;50.38
40850;BME280;26571;41.610;25.380;2022-08-03T00:57:39;98201.34;;;23.46;50.65
40850;BME280;26571;41.610;25.380;2022-08-03T01:00:06;98197.59;;;23.47;50.44
40850;BME280;26571;41.610;25.380;2022-08-03T01:02:32;98204.28;;;23.44;50.47
40850;BME280;26571;41.610;25.380;2022-08-03T01:04:57;98195.44;;;23.44;50.44
40850;BME280;26571;41.610;25.380;2022-08-03T01:10:08;98209.78;;;23.28;51.54
40850;BME280;26571;41.610;25.380;2022-08-03T01:12:39;98211.31;;;23.18;51.53
40850;BME280;26571;41.610;25.380;2022-08-03T01:15:16;98191.59;;;23.08;51.49
40850;BME280;26571;41.610;25.380;2022-08-03T01:17:52;98206.16;;;23.17;51.33
40850;BME280;26571;41.610;25.380;2022-08-03T01:20:21;98202.63;;;23.11;52.05
40850;BME280;26571;41.610;25.380;2022-08-03T01:28:21;98216.53;;;23.03;52.45
40850;BME280;26571;41.610;25.380;2022-08-03T01:30:52;98220.75;;;22.99;52.74
40850;BME280;26571;41.610;25.380;2022-08-03T01:33:27;98216.97;;;22.95;52.43
40850;BME280;26571;41.610;25.380;2022-08-03T01:35:59;98221.19;;;22.91;52.86
40850;BME280;26571;41.610;25.380;2022-08-03T01:38:28;98213.47;;;22.94;52.50
40850;BME280;26571;41.610;25.380;2022-08-03T01:40:56;98209.97;;;22.94;52.46
40850;BME280;26571;41.610;25.380;2022-08-03T01:43:25;98214.81;;;22.97;52.33
40850;BME280;26571;41.610;25.380;2022-08-03T01:45:55;98203.06;;;22.81;52.96
40850;BME280;26571;41.610;25.380;2022-08-03T01:48:22;98186.19;;;22.59;53.08
40850;BME280;26571;41.610;25.380;2022-08-03T01:50:50;98201.53;;;22.63;53.22
40850;BME280;26571;41.610;25.380;2022-08-03T01:53:17;98192.22;;;22.49;53.23
40850;BME280;26571;41.610;25.380;2022-08-03T01:55:43;98218.19;;;22.65;53.27
40850;BME280;26571;41.610;25.380;2022-08-03T01:58:12;98214.50;;;22.50;53.74
40850;BME280;26571;41.610;25.380;2022-08-03T02:00:40;98179.97;;;22.14;54.60
40850;BME280;26571;41.610;25.380;2022-08-03T02:03:07;98212.28;;;22.25;55.18
40850;BME280;26571;41.610;25.380;2022-08-03T02:05:33;98212.78;;;22.22;55.49
40850;BME280;26571;41.610;25.380;2022-08-03T02:08:02;98211.16;;;22.21;55.32
40850;BME280;26571;41.610;25.380;2022-08-03T02:10:29;98206.66;;;22.26;55.19
40850;BME280;26571;41.610;25.380;2022-08-03T02:13:00;98216.66;;;22.31;54.99
40850;BME280;26571;41.610;25.380;2022-08-03T02:15:27;98220.97;;;22.32;54.74
40850;BME280;26571;41.610;25.380;2022-08-03T02:17:52;98217.13;;;22.28;54.88
40850;BME280;26571;41.610;25.380;2022-08-03T02:20:19;98213.09;;;22.25;55.04
40850;BME280;26571;41.610;25.380;2022-08-03T02:22:45;98205.78;;;22.21;54.76
40850;BME280;26571;41.610;25.380;2022-08-03T02:25:14;98213.44;;;22.29;54.93
40850;BME280;26571;41.610;25.380;2022-08-03T02:27:46;98215.53;;;22.27;55.11
40850;BME280;26571;41.610;25.380;2022-08-03T02:30:15;98207.41;;;22.22;55.35
40850;BME280;26571;41.610;25.380;2022-08-03T02:32:43;98224.88;;;22.24;55.54
40850;BME280;26571;41.610;25.380;2022-08-03T02:35:14;98173.56;;;21.99;55.28
40850;BME280;26571;41.610;25.380;2022-08-03T02:37:45;98223.50;;;22.22;55.85
40850;BME280;26571;41.610;25.380;2022-08-03T02:40:14;98184.44;;;21.92;55.90
40850;BME280;26571;41.610;25.380;2022-08-03T02:42:41;98223.19;;;22.18;55.59
40850;BME280;26571;41.610;25.380;2022-08-03T02:45:09;98228.06;;;22.21;55.81
40850;BME280;26571;41.610;25.380;2022-08-03T02:47:39;98202.25;;;21.98;55.96
40850;BME280;26571;41.610;25.380;2022-08-03T02:50:08;98230.72;;;22.04;55.85
40850;BME280;26571;41.610;25.380;2022-08-03T02:52:33;98231.81;;;22.03;55.89
40850;BME280;26571;41.610;25.380;2022-08-03T02:55:01;98226.44;;;22.03;56.22
40850;BME280;26571;41.610;25.380;2022-08-03T02:57:30;98232.91;;;22.07;55.92
40850;BME280;26571;41.610;25.380;2022-08-03T02:59:57;98230.47;;;22.06;56.21
40850;BME280;26571;41.610;25.380;2022-08-03T03:02:24;98241.22;;;22.06;56.32
40850;BME280;26571;41.610;25.380;2022-08-03T03:04:51;98223.69;;;21.98;56.66
40850;BME280;26571;41.610;25.380;2022-08-03T03:07:17;98232.75;;;21.97;56.96
40850;BME280;26571;41.610;25.380;2022-08-03T03:09:43;98232.94;;;21.90;56.79
40850;BME280;26571;41.610;25.380;2022-08-03T03:12:10;98238.53;;;21.89;56.83
40850;BME280;26571;41.610;25.380;2022-08-03T03:14:37;98225.63;;;21.86;56.74
40850;BME280;26571;41.610;25.380;2022-08-03T03:17:03;98249.97;;;22.01;56.42
40850;BME280;26571;41.610;25.380;2022-08-03T03:19:31;98246.22;;;22.02;56.63
40850;BME280;26571;41.610;25.380;2022-08-03T03:21:59;98246.75;;;21.99;56.99
40850;BME280;26571;41.610;25.380;2022-08-03T03:24:26;98188.59;;;21.66;56.71
40850;BME280;26571;41.610;25.380;2022-08-03T03:26:53;98249.16;;;22.01;57.21
40850;BME280;26571;41.610;25.380;2022-08-03T03:29:19;98245.03;;;21.93;57.78
40850;BME280;26571;41.610;25.380;2022-08-03T03:31:45;98215.06;;;21.62;57.51
40850;BME280;26571;41.610;25.380;2022-08-03T03:34:11;98247.13;;;21.91;56.69
40850;BME280;26571;41.610;25.380;2022-08-03T03:36:37;98245.84;;;21.93;56.59
40850;BME280;26571;41.610;25.380;2022-08-03T03:39:02;98253.31;;;21.91;56.67
40850;BME280;26571;41.610;25.380;2022-08-03T03:41:28;98254.84;;;21.87;56.63
40850;BME280;26571;41.610;25.380;2022-08-03T03:43:54;98250.22;;;21.83;56.63
40850;BME280;26571;41.610;25.380;2022-08-03T03:46:19;98222.13;;;21.68;56.75
40850;BME280;26571;41.610;25.380;2022-08-03T03:48:45;98259.25;;;21.93;57.10
40850;BME280;26571;41.610;25.380;2022-08-03T03:51:11;98261.59;;;22.07;56.91
40850;BME280;26571;41.610;25.380;2022-08-03T03:53:37;98268.97;;;22.50;55.62
40850;BME280;26571;41.610;25.380;2022-08-03T03:56:03;98270.56;;;23.12;54.57
40850;BME280;26571;41.610;25.380;2022-08-03T03:58:29;98260.22;;;23.75;52.59
40850;BME280;26571;41.610;25.380;2022-08-03T04:00:55;98264.03;;;24.16;50.81
40850;BME280;26571;41.610;25.380;2022-08-03T04:03:20;98269.56;;;24.79;49.50
40850;BME280;26571;41.610;25.380;2022-08-03T04:05:45;98265.47;;;25.39;47.18
40850;BME280;26571;41.610;25.380;2022-08-03T04:08:30;98265.81;;;26.14;45.71
40850;BME280;26571;41.610;25.380;2022-08-03T04:11:23;98269.63;;;27.13;43.28
40850;BME280;26571;41.610;25.380;2022-08-03T04:14:02;98275.22;;;28.11;40.93
40850;BME280;26571;41.610;25.380;2022-08-03T04:16:33;98271.97;;;28.91;39.35
40850;BME280;26571;41.610;25.380;2022-08-03T04:19:11;98272.66;;;29.63;37.94
40850;BME280;26571;41.610;25.380;2022-08-03T04:21:40;98277.66;;;30.40;36.74
40850;BME280;26571;41.610;25.380;2022-08-03T04:24:08;98276.78;;;31.13;35.06
40850;BME280;26571;41.610;25.380;2022-08-03T04:26:38;98272.81;;;31.83;33.55
40850;BME280;26571;41.610;25.380;2022-08-03T04:29:05;98267.88;;;32.39;32.65
40850;BME280;26571;41.610;25.380;2022-08-03T04:31:31;98259.53;;;32.75;31.84
40850;BME280;26571;41.610;25.380;2022-08-03T04:33:57;98279.63;;;33.54;31.05
40850;BME280;26571;41.610;25.380;2022-08-03T04:36:25;98272.72;;;34.00;30.27
40850;BME280;26571;41.610;25.380;2022-08-03T04:39:18;98273.22;;;34.57;29.51
40850;BME280;26571;41.610;25.380;2022-08-03T04:41:49;98277.06;;;34.94;28.84
40850;BME280;26571;41.610;25.380;2022-08-03T04:44:18;98276.88;;;35.29;28.08
40850;BME280;26571;41.610;25.380;2022-08-03T04:46:44;98285.25;;;35.54;27.68
40850;BME280;26571;41.610;25.380;2022-08-03T04:49:09;98281.19;;;35.81;27.65
40850;BME280;26571;41.610;25.380;2022-08-03T04:51:36;98282.47;;;36.16;27.13
40850;BME280;26571;41.610;25.380;2022-08-03T04:54:03;98284.22;;;36.33;27.04
40850;BME280;26571;41.610;25.380;2022-08-03T04:56:29;98288.09;;;36.32;26.98
40850;BME280;26571;41.610;25.380;2022-08-03T04:58:54;98294.94;;;35.72;27.54
40850;BME280;26571;41.610;25.380;2022-08-03T05:01:20;98281.19;;;34.71;28.69
40850;BME280;26571;41.610;25.380;2022-08-03T05:03:46;98285.41;;;33.61;30.44
40850;BME280;26571;41.610;25.380;2022-08-03T05:06:12;98289.59;;;33.58;30.78
40850;BME280;26571;41.610;25.380;2022-08-03T05:08:38;98292.00;;;33.77;30.78
40850;BME280;26571;41.610;25.380;2022-08-03T05:11:03;98293.91;;;33.59;30.99
40850;BME280;26571;41.610;25.380;2022-08-03T05:13:29;98296.09;;;32.74;32.01
40850;BME280;26571;41.610;25.380;2022-08-03T05:15:54;98287.56;;;32.67;32.64
40850;BME280;26571;41.610;25.380;2022-08-03T05:18:20;98298.53;;;32.84;32.28
40850;BME280;26571;41.610;25.380;2022-08-03T05:20:45;98243.97;;;32.76;32.21
40850;BME280;26571;41.610;25.380;2022-08-03T05:23:10;98295.31;;;33.39;31.74
40850;BME280;26571;41.610;25.380;2022-08-03T05:25:36;98298.72;;;33.45;32.17
40850;BME280;26571;41.610;25.380;2022-08-03T05:28:01;98306.41;;;33.52;32.61
40850;BME280;26571;41.610;25.380;2022-08-03T05:30:27;98275.22;;;33.27;32.24
40850;BME280;26571;41.610;25.380;2022-08-03T05:32:53;98308.84;;;33.44;32.23
40850;BME280;26571;41.610;25.380;2022-08-03T05:35:18;98317.63;;;32.84;32.78
40850;BME280;26571;41.610;25.380;2022-08-03T05:37:44;98310.72;;;32.25;33.94
40850;BME280;26571;41.610;25.380;2022-08-03T05:40:10;98319.41;;;31.68;35.07
40850;BME280;26571;41.610;25.380;2022-08-03T05:42:36;98328.75;;;31.39;35.88
40850;BME280;26571;41.610;25.380;2022-08-03T05:45:05;98325.13;;;31.44;35.77
40850;BME280;26571;41.610;25.380;2022-08-03T05:47:40;98321.63;;;30.88;36.42
40850;BME280;26571;41.610;25.380;2022-08-03T05:50:06;98311.94;;;30.36;38.14
40850;BME280;26571;41.610;25.380;2022-08-03T05:52:32;98318.38;;;30.26;37.76
40850;BME280;26571;41.610;25.380;2022-08-03T05:54:57;98308.47;;;30.17;38.14
40850;BME280;26571;41.610;25.380;2022-08-03T05:57:24;98316.59;;;29.84;38.99
40850;BME280;26571;41.610;25.380;2022-08-03T05:59:49;98329.69;;;29.58;39.27
40850;BME280;26571;41.610;25.380;2022-08-03T06:02:14;98321.31;;;29.35;40.13
40850;BME280;26571;41.610;25.380;2022-08-03T06:04:40;98323.97;;;29.41;39.75
40850;BME280;26571;41.610;25.380;2022-08-03T06:07:05;98322.47;;;29.48;39.46
40850;BME280;26571;41.610;25.380;2022-08-03T06:09:31;98327.41;;;29.46;40.67
40850;BME280;26571;41.610;25.380;2022-08-03T06:11:56;98320.78;;;29.33;39.67
40850;BME280;26571;41.610;25.380;2022-08-03T06:14:21;98316.31;;;29.43;39.83
40850;BME280;26571;41.610;25.380;2022-08-03T06:16:47;98320.91;;;29.66;40.55
40850;BME280;26571;41.610;25.380;2022-08-03T06:19:12;98326.69;;;29.97;39.04
40850;BME280;26571;41.610;25.380;2022-08-03T06:21:38;98323.38;;;30.19;39.58
40850;BME280;26571;41.610;25.380;2022-08-03T06:24:03;98305.53;;;30.46;39.17
40850;BME280;26571;41.610;25.380;2022-08-03T06:26:29;98324.94;;;30.85;37.03
40850;BME280;26571;41.610;25.380;2022-08-03T06:28:55;98330.16;;;31.09;37.46
40850;BME280;26571;41.610;25.380;2022-08-03T06:31:22;98338.03;;;31.38;37.27
40850;BME280;26571;41.610;25.380;2022-08-03T06:33:49;98330.53;;;31.58;36.31
40850;BME280;26571;41.610;25.380;2022-08-03T06:36:14;98313.13;;;31.45;36.50
40850;BME280;26571;41.610;25.380;2022-08-03T06:38:39;98326.53;;;31.42;36.50
40850;BME280;26571;41.610;25.380;2022-08-03T06:41:05;98328.75;;;31.26;36.75
40850;BME280;26571;41.610;25.380;2022-08-03T06:43:30;98323.09;;;31.22;37.66
40850;BME280;26571;41.610;25.380;2022-08-03T06:45:59;98318.47;;;31.36;36.67
40850;BME280;26571;41.610;25.380;2022-08-03T06:48:25;98318.25;;;31.47;36.82
40850;BME280;26571;41.610;25.380;2022-08-03T06:50:50;98321.50;;;31.71;37.02
40850;BME280;26571;41.610;25.380;2022-08-03T06:53:16;98323.41;;;31.84;36.28
40850;BME280;26571;41.610;25.380;2022-08-03T06:55:41;98316.41;;;31.92;36.46
40850;BME280;26571;41.610;25.380;2022-08-03T06:58:06;98313.03;;;32.09;36.16
40850;BME280;26571;41.610;25.380;2022-08-03T07:00:32;98323.03;;;32.22;35.37
40850;BME280;26571;41.610;25.380;2022-08-03T07:02:57;98315.63;;;32.36;33.79
40850;BME280;26571;41.610;25.380;2022-08-03T07:05:23;98317.91;;;32.43;34.47
40850;BME280;26571;41.610;25.380;2022-08-03T07:07:48;98310.78;;;32.33;34.39
40850;BME280;26571;41.610;25.380;2022-08-03T07:10:14;98318.59;;;32.04;33.87
40850;BME280;26571;41.610;25.380;2022-08-03T07:12:39;98314.59;;;31.65;33.03
40850;BME280;26571;41.610;25.380;2022-08-03T07:15:06;98316.66;;;31.46;33.45
40850;BME280;26571;41.610;25.380;2022-08-03T07:17:33;98305.28;;;31.44;33.93
40850;BME280;26571;41.610;25.380;2022-08-03T07:20:01;98317.19;;;31.70;34.52
40850;BME280;26571;41.610;25.380;2022-08-03T07:22:27;98313.75;;;31.78;34.02
40850;BME280;26571;41.610;25.380;2022-08-03T07:24:53;98309.38;;;31.91;34.02
40850;BME280;26571;41.610;25.380;2022-08-03T07:27:18;98322.50;;;32.11;32.87
40850;BME280;26571;41.610;25.380;2022-08-03T07:29:44;98321.16;;;32.31;32.82
40850;BME280;26571;41.610;25.380;2022-08-03T07:32:09;98303.63;;;32.37;32.61
40850;BME280;26571;41.610;25.380;2022-08-03T07:34:35;98314.13;;;32.53;31.98
40850;BME280;26571;41.610;25.380;2022-08-03T07:37:00;98317.53;;;32.67;33.01
40850;BME280;26571;41.610;25.380;2022-08-03T07:39:26;98314.66;;;32.72;32.28
40850;BME280;26571;41.610;25.380;2022-08-03T07:41:51;98316.03;;;32.83;31.48
40850;BME280;26571;41.610;25.380;2022-08-03T07:44:17;98327.53;;;32.80;31.38
40850;BME280;26571;41.610;25.380;2022-08-03T07:46:43;98316.03;;;32.83;31.69
40850;BME280;26571;41.610;25.380;2022-08-03T07:49:09;98314.56;;;32.86;32.03
40850;BME280;26571;41.610;25.380;2022-08-03T07:51:34;98313.03;;;32.93;32.04
40850;BME280;26571;41.610;25.380;2022-08-03T07:54:00;98292.47;;;32.48;30.72
40850;BME280;26571;41.610;25.380;2022-08-03T07:56:26;98314.25;;;32.48;31.67
40850;BME280;26571;41.610;25.380;2022-08-03T07:58:52;98305.94;;;32.53;32.39
40850;BME280;26571;41.610;25.380;2022-08-03T08:01:18;98318.00;;;32.60;32.36
40850;BME280;26571;41.610;25.380;2022-08-03T08:03:48;98299.47;;;32.17;31.92
40850;BME280;26571;41.610;25.380;2022-08-03T08:06:14;98313.91;;;32.18;32.62
40850;BME280;26571;41.610;25.380;2022-08-03T08:08:39;98317.28;;;32.24;32.23
40850;BME280;26571;41.610;25.380;2022-08-03T08:11:05;98314.63;;;32.10;32.02
40850;BME280;26571;41.610;25.380;2022-08-03T08:13:31;98310.97;;;32.14;32.50
40850;BME280;26571;41.610;25.380;2022-08-03T08:15:56;98311.84;;;32.01;32.17
40850;BME280;26571;41.610;25.380;2022-08-03T08:18:22;98311.28;;;31.90;33.22
40850;BME280;26571;41.610;25.380;2022-08-03T08:20:54;98314.50;;;31.92;33.82
40850;BME280;26571;41.610;25.380;2022-08-03T08:23:19;98310.03;;;31.97;33.92
40850;BME280;26571;41.610;25.380;2022-08-03T08:25:48;98307.72;;;32.04;33.08
40850;BME280;26571;41.610;25.380;2022-08-03T08:28:17;98310.19;;;32.14;34.21
40850;BME280;26571;41.610;25.380;2022-08-03T08:30:43;98281.69;;;32.20;33.42
40850;BME280;26571;41.610;25.380;2022-08-03T08:33:08;98300.19;;;32.54;32.89
40850;BME280;26571;41.610;25.380;2022-08-03T08:35:34;98266.06;;;32.34;32.72
40850;BME280;26571;41.610;25.380;2022-08-03T08:38:00;98306.09;;;32.48;32.61
40850;BME280;26571;41.610;25.380;2022-08-03T08:40:26;98317.91;;;32.43;32.95
40850;BME280;26571;41.610;25.380;2022-08-03T08:42:51;98310.91;;;32.28;33.00
40850;BME280;26571;41.610;25.380;2022-08-03T08:45:18;98309.66;;;32.34;33.36
40850;BME280;26571;41.610;25.380;2022-08-03T08:47:45;98320.69;;;32.07;32.71
40850;BME280;26571;41.610;25.380;2022-08-03T08:50:11;98309.06;;;32.15;31.86
40850;BME280;26571;41.610;25.380;2022-08-03T08:52:40;98277.91;;;32.07;32.56
40850;BME280;26571;41.610;25.380;2022-08-03T08:55:09;98310.69;;;32.38;31.91
40850;BME280;26571;41.610;25.380;2022-08-03T08:57:43;98308.59;;;32.22;31.86
40850;BME280;26571;41.610;25.380;2022-08-03T09:00:10;98321.06;;;32.14;32.56
40850;BME280;26571;41.610;25.380;2022-08-03T09:02:39;98304.28;;;32.21;31.56
40850;BME280;26571;41.610;25.380;2022-08-03T09:05:12;98303.41;;;32.34;32.05
40850;BME280;26571;41.610;25.380;2022-08-03T09:07:40;98309.44;;;32.45;32.36
40850;BME280;26571;41.610;25.380;2022-08-03T09:10:08;98297.22;;;32.73;31.70
40850;BME280;26571;41.610;25.380;2022-08-03T09:12:52;98294.13;;;32.66;31.50
40850;BME280;26571;41.610;25.380;2022-08-03T09:15:19;98305.59;;;32.23;31.37
40850;BME280;26571;41.610;25.380;2022-08-03T09:17:46;98284.06;;;31.90;31.67
40850;BME280;26571;41.610;25.380;2022-08-03T09:20:11;98318.84;;;32.16;31.03
40850;BME280;26571;41.610;25.380;2022-08-03T09:30:35;98290.25;;;31.32;32.58
40850;BME280;26571;41.610;25.380;2022-08-03T09:33:02;98281.44;;;31.13;32.69
40850;BME280;26571;41.610;25.380;2022-08-03T09:35:28;98286.66;;;31.23;32.85
40850;BME280;26571;41.610;25.380;2022-08-03T09:38:20;98290.28;;;31.05;33.05
40850;BME280;26571;41.610;25.380;2022-08-03T09:40:50;98272.38;;;31.04;33.29
40850;BME280;26571;41.610;25.380;2022-08-03T09:43:16;98284.03;;;31.18;33.37
40850;BME280;26571;41.610;25.380;2022-08-03T09:45:42;98271.03;;;31.15;33.51
40850;BME280;26571;41.610;25.380;2022-08-03T09:48:29;98288.88;;;31.35;32.49
40850;BME280;26571;41.610;25.380;2022-08-03T09:50:57;98287.59;;;31.55;32.43
40850;BME280;26571;41.610;25.380;2022-08-03T09:53:23;98264.28;;;31.12;31.80
40850;BME280;26571;41.610;25.380;2022-08-03T09:55:51;98272.75;;;31.11;31.89
40850;BME280;26571;41.610;25.380;2022-08-03T09:58:19;98265.00;;;31.18;31.98
40850;BME280;26571;41.610;25.380;2022-08-03T10:00:52;98281.81;;;31.34;31.94
40850;BME280;26571;41.610;25.380;2022-08-03T10:03:18;98260.06;;;31.20;31.73
40850;BME280;26571;41.610;25.380;2022-08-03T10:05:44;98265.94;;;31.50;31.18
40850;BME280;26571;41.610;25.380;2022-08-03T10:08:17;98266.16;;;31.76;31.39
40850;BME280;26571;41.610;25.380;2022-08-03T10:10:45;98267.84;;;31.85;30.47
40850;BME280;26571;41.610;25.380;2022-08-03T10:13:12;98270.56;;;31.85;31.29
40850;BME280;26571;41.610;25.380;2022-08-03T10:15:39;98267.00;;;31.99;31.12
40850;BME280;26571;41.610;25.380;2022-08-03T10:18:05;98261.03;;;31.97;29.88
40850;BME280;26571;41.610;25.380;2022-08-03T10:20:42;98280.28;;;31.78;30.42
40850;BME280;26571;41.610;25.380;2022-08-03T10:23:09;98265.81;;;31.91;30.39
40850;BME280;26571;41.610;25.380;2022-08-03T10:25:37;98257.69;;;32.00;30.39
40850;BME280;26571;41.610;25.380;2022-08-03T10:28:03;98260.50;;;31.72;30.67
40850;BME280;26571;41.610;25.380;2022-08-03T10:30:31;98262.25;;;31.68;30.94
40850;BME280;26571;41.610;25.380;2022-08-03T10:33:14;98248.25;;;31.38;30.98
40850;BME280;26571;41.610;25.380;2022-08-03T10:35:43;98257.66;;;31.19;31.09
40850;BME280;26571;41.610;25.380;2022-08-03T10:38:13;98262.09;;;31.01;32.26
40850;BME280;26571;41.610;25.380;2022-08-03T10:40:41;98249.59;;;31.13;31.74
40850;BME280;26571;41.610;25.380;2022-08-03T10:43:24;98248.97;;;31.30;30.99
40850;BME280;26571;41.610;25.380;2022-08-03T10:45:51;98250.56;;;31.31;31.41
40850;BME280;26571;41.610;25.380;2022-08-03T10:48:18;98246.38;;;31.11;31.54
40850;BME280;26571;41.610;25.380;2022-08-03T10:50:44;98245.13;;;31.31;31.67
40850;BME280;26571;41.610;25.380;2022-08-03T10:53:10;98247.78;;;31.59;32.00
40850;BME280;26571;41.610;25.380;2022-08-03T10:55:43;98246.78;;;31.77;31.47
40850;BME280;26571;41.610;25.380;2022-08-03T11:01:07;98247.25;;;31.57;29.82
40850;BME280;26571;41.610;25.380;2022-08-03T11:06:24;98241.25;;;31.46;30.87
40850;BME280;26571;41.610;25.380;2022-08-03T11:11:35;98249.22;;;31.43;31.01
40850;BME280;26571;41.610;25.380;2022-08-03T11:14:07;98247.78;;;31.59;31.67
40850;BME280;26571;41.610;25.380;2022-08-03T11:16:35;98236.66;;;31.69;31.40
40850;BME280;26571;41.610;25.380;2022-08-03T11:19:10;98235.50;;;31.84;30.26
40850;BME280;26571;41.610;25.380;2022-08-03T11:35:11;98224.38;;;31.80;30.83
40850;BME280;26571;41.610;25.380;2022-08-03T11:40:47;98214.97;;;32.09;30.04
40850;BME280;26571;41.610;25.380;2022-08-03T11:46:10;98202.22;;;32.18;28.72
40850;BME280;26571;41.610;25.380;2022-08-03T11:48:43;98209.41;;;32.14;28.37
40850;BME280;26571;41.610;25.380;2022-08-03T11:53:44;98200.25;;;32.10;28.17
40850;BME280;26571;41.610;25.380;2022-08-03T11:56:12;98187.56;;;32.05;28.79
40850;BME280;26571;41.610;25.380;2022-08-03T11:58:46;98109.50;;;31.38;29.00
40850;BME280;26571;41.610;25.380;2022-08-03T12:01:13;98179.97;;;31.94;29.75
40850;BME280;26571;41.610;25.380;2022-08-03T12:03:41;98189.00;;;32.03;28.48
40850;BME280;26571;41.610;25.380;2022-08-03T12:06:10;98185.16;;;32.04;28.94
40850;BME280;26571;41.610;25.380;2022-08-03T12:08:36;98171.56;;;32.12;29.13
40850;BME280;26571;41.610;25.380;2022-08-03T12:11:04;98186.75;;;32.05;28.49
40850;BME280;26571;41.610;25.380;2022-08-03T12:13:37;98175.63;;;31.92;28.99
40850;BME280;26571;41.610;25.380;2022-08-03T12:16:03;98170.47;;;31.82;29.08
40850;BME280;26571;41.610;25.380;2022-08-03T12:18:29;98175.16;;;31.90;29.17
40850;BME280;26571;41.610;25.380;2022-08-03T12:21:06;98144.72;;;31.88;29.26
40850;BME280;26571;41.610;25.380;2022-08-03T12:23:33;98158.91;;;32.08;27.97
40850;BME280;26571;41.610;25.380;2022-08-03T12:26:06;98160.56;;;32.17;28.52
40850;BME280;26571;41.610;25.380;2022-08-03T12:28:32;98152.13;;;31.97;28.19
40850;BME280;26571;41.610;25.380;2022-08-03T12:31:06;98174.00;;;31.83;28.76
40850;BME280;26571;41.610;25.380;2022-08-03T12:36:20;98143.97;;;31.74;28.71
40850;BME280;26571;41.610;25.380;2022-08-03T12:38:54;98125.94;;;31.56;28.36
40850;BME280;26571;41.610;25.380;2022-08-03T12:41:32;98145.75;;;31.79;29.49
40850;BME280;26571;41.610;25.380;2022-08-03T12:43:59;98129.84;;;31.72;29.46
40850;BME280;26571;41.610;25.380;2022-08-03T12:46:30;98103.75;;;31.71;28.78
40850;BME280;26571;41.610;25.380;2022-08-03T12:49:10;98131.78;;;31.94;28.60
40850;BME280;26571;41.610;25.380;2022-08-03T12:54:29;98150.09;;;31.80;28.43
40850;BME280;26571;41.610;25.380;2022-08-03T12:59:32;98118.84;;;31.77;28.65
40850;BME280;26571;41.610;25.380;2022-08-03T13:01:58;98132.38;;;31.91;29.03
40850;BME280;26571;41.610;25.380;2022-08-03T13:04:28;98140.56;;;31.91;28.84
40850;BME280;26571;41.610;25.380;2022-08-03T13:06:56;98112.91;;;31.75;28.56
40850;BME280;26571;41.610;25.380;2022-08-03T13:09:22;98091.41;;;31.65;29.23
40850;BME280;26571;41.610;25.380;2022-08-03T13:12:04;98128.06;;;31.90;28.75
40850;BME280;26571;41.610;25.380;2022-08-03T13:14:29;98129.25;;;31.98;30.00
40850;BME280;26571;41.610;25.380;2022-08-03T13:16:55;98118.53;;;32.10;29.08
40850;BME280;26571;41.610;25.380;2022-08-03T13:19:20;98117.44;;;32.20;29.26
40850;BME280;26571;41.610;25.380;2022-08-03T13:21:46;98115.06;;;32.18;28.40
40850;BME280;26571;41.610;25.380;2022-08-03T13:24:21;98083.59;;;31.72;28.13
40850;BME280;26571;41.610;25.380;2022-08-03T13:26:47;98123.28;;;31.96;29.08
40850;BME280;26571;41.610;25.380;2022-08-03T13:29:12;98119.56;;;31.91;28.75
40850;BME280;26571;41.610;25.380;2022-08-03T13:31:38;98119.47;;;31.74;29.39
40850;BME280;26571;41.610;25.380;2022-08-03T13:34:03;98120.69;;;31.59;29.46
40850;BME280;26571;41.610;25.380;2022-08-03T13:36:29;98122.09;;;31.57;29.74
40850;BME280;26571;41.610;25.380;2022-08-03T13:38:54;98113.78;;;31.62;29.55
40850;BME280;26571;41.610;25.380;2022-08-03T13:41:20;98121.09;;;31.53;28.71
40850;BME280;26571;41.610;25.380;2022-08-03T13:43:46;98112.41;;;31.42;28.43
40850;BME280;26571;41.610;25.380;2022-08-03T13:46:11;98125.97;;;31.33;28.63
40850;BME280;26571;41.610;25.380;2022-08-03T13:48:37;98123.38;;;31.28;28.65